sensor_id;sensor_type;location;lat;lon;timestamp;P1;durP1;ratioP1;P2;durP2;ratioP2
52015;SDS011;38032;53.326;6.472;2023-08-06T00:00:54;11.57;;;8.30;;
52015;SDS011;38032;53.326;6.472;2023-08-06T00:03:20;10.45;;;8.18;;
52015;SDS011;38032;53.326;6.472;2023-08-06T00:05:46;15.20;;;9.70;;
52015;SDS011;38032;53.326;6.472;2023-08-06T00:08:12;10.88;;;8.57;;
52015;SDS011;38032;53.326;6.472;2023-08-06T00:10:39;11.00;;;8.32;;
52015;SDS011;38032;53.326;6.472;2023-08-06T00:13:06;13.32;;;8.02;;
52015;SDS011;38032;53.326;6.472;2023-08-06T00:15:32;12.57;;;8.68;;
52015;SDS011;38032;53.326;6.472;2023-08-06T00:17:58;11.77;;;8.23;;
52015;SDS011;38032;53.326;6.472;2023-08-06T00:20:24;12.57;;;8.52;;
52015;SDS011;38032;53.326;6.472;2023-08-06T00:22:50;12.02;;;8.50;;
52015;SDS011;38032;53.326;6.472;2023-08-06T00:25:16;10.45;;;7.95;;
52015;SDS011;38032;53.326;6.472;2023-08-06T00:27:41;11.23;;;8.52;;
52015;SDS011;38032;53.326;6.472;2023-08-06T00:30:07;12.30;;;8.80;;
52015;SDS011;38032;53.326;6.472;2023-08-06T00:32:34;11.18;;;8.13;;
52015;SDS011;38032;53.326;6.472;2023-08-06T00:34:59;13.02;;;8.98;;
52015;SDS011;38032;53.326;6.472;2023-08-06T00:37:25;11.48;;;8.98;;
52015;SDS011;38032;53.326;6.472;2023-08-06T00:39:51;10.57;;;8.23;;
52015;SDS011;38032;53.326;6.472;2023-08-06T00:42:17;9.73;;;8.25;;
52015;SDS011;38032;53.326;6.472;2023-08-06T00:44:46;11.93;;;8.82;;
52015;SDS011;38032;53.326;6.472;2023-08-06T00:47:12;11.20;;;8.02;;
52015;SDS011;38032;53.326;6.472;2023-08-06T00:49:38;10.88;;;7.88;;
52015;SDS011;38032;53.326;6.472;2023-08-06T00:52:05;12.30;;;8.23;;
52015;SDS011;38032;53.326;6.472;2023-08-06T00:54:32;9.68;;;7.93;;
52015;SDS011;38032;53.326;6.472;2023-08-06T00:56:58;10.65;;;8.70;;
52015;SDS011;38032;53.326;6.472;2023-08-06T00:59:26;11.27;;;8.50;;
52015;SDS011;38032;53.326;6.472;2023-08-06T01:01:52;10.98;;;8.95;;
52015;SDS011;38032;53.326;6.472;2023-08-06T01:04:18;11.57;;;8.45;;
52015;SDS011;38032;53.326;6.472;2023-08-06T01:06:47;10.48;;;7.53;;
52015;SDS011;38032;53.326;6.472;2023-08-06T01:09:31;11.35;;;8.50;;
52015;SDS011;38032;53.326;6.472;2023-08-06T01:12:09;14.95;;;8.63;;
52015;SDS011;38032;53.326;6.472;2023-08-06T01:17:30;14.05;;;8.57;;
52015;SDS011;38032;53.326;6.472;2023-08-06T01:19:57;10.80;;;8.38;;
52015;SDS011;38032;53.326;6.472;2023-08-06T01:22:23;11.05;;;8.30;;
52015;SDS011;38032;53.326;6.472;2023-08-06T01:24:49;10.85;;;8.65;;
52015;SDS011;38032;53.326;6.472;2023-08-06T01:32:37;12.38;;;8.10;;
52015;SDS011;38032;53.326;6.472;2023-08-06T01:35:07;10.30;;;8.13;;
52015;SDS011;38032;53.326;6.472;2023-08-06T01:37:36;11.77;;;8.25;;
52015;SDS011;38032;53.326;6.472;2023-08-06T01:40:09;11.57;;;9.32;;
52015;SDS011;38032;53.326;6.472;2023-08-06T01:42:37;11.05;;;8.57;;
52015;SDS011;38032;53.326;6.472;2023-08-06T01:45:04;11.80;;;8.75;;
52015;SDS011;38032;53.326;6.472;2023-08-06T01:47:32;12.60;;;9.38;;
52015;SDS011;38032;53.326;6.472;2023-08-06T01:49:58;13.45;;;8.80;;
52015;SDS011;38032;53.326;6.472;2023-08-06T01:52:25;11.65;;;9.23;;
52015;SDS011;38032;53.326;6.472;2023-08-06T01:54:53;12.32;;;9.45;;
52015;SDS011;38032;53.326;6.472;2023-08-06T01:57:19;12.57;;;9.75;;
52015;SDS011;38032;53.326;6.472;2023-08-06T01:59:45;11.52;;;9.45;;
52015;SDS011;38032;53.326;6.472;2023-08-06T02:02:11;14.00;;;10.20;;
52015;SDS011;38032;53.326;6.472;2023-08-06T02:04:37;12.57;;;10.30;;
52015;SDS011;38032;53.326;6.472;2023-08-06T02:07:03;13.32;;;9.93;;
52015;SDS011;38032;53.326;6.472;2023-08-06T02:09:29;17.42;;;10.98;;
52015;SDS011;38032;53.326;6.472;2023-08-06T02:11:55;14.82;;;10.48;;
52015;SDS011;38032;53.326;6.472;2023-08-06T02:14:21;14.50;;;10.35;;
52015;SDS011;38032;53.326;6.472;2023-08-06T02:16:46;13.52;;;10.57;;
52015;SDS011;38032;53.326;6.472;2023-08-06T02:19:12;15.07;;;11.23;;
52015;SDS011;38032;53.326;6.472;2023-08-06T02:21:38;15.40;;;11.23;;
52015;SDS011;38032;53.326;6.472;2023-08-06T02:24:04;15.13;;;11.23;;
52015;SDS011;38032;53.326;6.472;2023-08-06T02:26:30;16.75;;;10.90;;
52015;SDS011;38032;53.326;6.472;2023-08-06T02:28:56;14.13;;;10.57;;
52015;SDS011;38032;53.326;6.472;2023-08-06T02:31:22;13.80;;;11.18;;
52015;SDS011;38032;53.326;6.472;2023-08-06T02:33:48;14.07;;;10.93;;
52015;SDS011;38032;53.326;6.472;2023-08-06T02:36:14;14.85;;;11.48;;
52015;SDS011;38032;53.326;6.472;2023-08-06T02:38:40;17.85;;;11.30;;
52015;SDS011;38032;53.326;6.472;2023-08-06T02:41:06;13.63;;;11.20;;
52015;SDS011;38032;53.326;6.472;2023-08-06T02:43:31;14.38;;;10.95;;
52015;SDS011;38032;53.326;6.472;2023-08-06T02:45:59;14.65;;;11.70;;
52015;SDS011;38032;53.326;6.472;2023-08-06T02:48:25;16.05;;;11.30;;
52015;SDS011;38032;53.326;6.472;2023-08-06T02:50:51;15.07;;;11.68;;
52015;SDS011;38032;53.326;6.472;2023-08-06T02:53:17;12.65;;;11.25;;
52015;SDS011;38032;53.326;6.472;2023-08-06T02:55:47;16.40;;;12.68;;
52015;SDS011;38032;53.326;6.472;2023-08-06T02:58:14;22.90;;;12.32;;
52015;SDS011;38032;53.326;6.472;2023-08-06T03:00:40;16.52;;;11.70;;
52015;SDS011;38032;53.326;6.472;2023-08-06T03:03:07;13.63;;;11.55;;
52015;SDS011;38032;53.326;6.472;2023-08-06T03:05:33;15.45;;;11.57;;
52015;SDS011;38032;53.326;6.472;2023-08-06T03:07:59;14.93;;;11.63;;
52015;SDS011;38032;53.326;6.472;2023-08-06T03:10:24;14.93;;;11.70;;
52015;SDS011;38032;53.326;6.472;2023-08-06T03:12:50;15.10;;;11.45;;
52015;SDS011;38032;53.326;6.472;2023-08-06T03:15:16;14.05;;;11.23;;
52015;SDS011;38032;53.326;6.472;2023-08-06T03:17:42;13.77;;;11.95;;
52015;SDS011;38032;53.326;6.472;2023-08-06T03:20:09;17.25;;;11.82;;
52015;SDS011;38032;53.326;6.472;2023-08-06T03:22:35;15.95;;;11.85;;
52015;SDS011;38032;53.326;6.472;2023-08-06T03:25:01;17.55;;;11.35;;
52015;SDS011;38032;53.326;6.472;2023-08-06T03:27:28;15.45;;;11.05;;
52015;SDS011;38032;53.326;6.472;2023-08-06T03:29:54;15.48;;;11.65;;
52015;SDS011;38032;53.326;6.472;2023-08-06T03:32:20;15.75;;;11.82;;
52015;SDS011;38032;53.326;6.472;2023-08-06T03:34:46;17.25;;;12.05;;
52015;SDS011;38032;53.326;6.472;2023-08-06T03:37:11;15.45;;;11.52;;
52015;SDS011;38032;53.326;6.472;2023-08-06T03:39:37;16.05;;;11.90;;
52015;SDS011;38032;53.326;6.472;2023-08-06T03:42:04;14.68;;;11.63;;
52015;SDS011;38032;53.326;6.472;2023-08-06T03:44:30;13.88;;;11.52;;
52015;SDS011;38032;53.326;6.472;2023-08-06T03:46:56;15.05;;;11.57;;
52015;SDS011;38032;53.326;6.472;2023-08-06T03:49:21;15.20;;;11.48;;
52015;SDS011;38032;53.326;6.472;2023-08-06T03:51:47;16.85;;;11.70;;
52015;SDS011;38032;53.326;6.472;2023-08-06T03:54:13;13.95;;;10.85;;
52015;SDS011;38032;53.326;6.472;2023-08-06T03:56:39;15.90;;;10.90;;
52015;SDS011;38032;53.326;6.472;2023-08-06T03:59:05;14.77;;;11.00;;
52015;SDS011;38032;53.326;6.472;2023-08-06T04:01:31;13.93;;;11.73;;
52015;SDS011;38032;53.326;6.472;2023-08-06T04:03:57;16.95;;;10.88;;
52015;SDS011;38032;53.326;6.472;2023-08-06T04:06:23;14.20;;;11.18;;
52015;SDS011;38032;53.326;6.472;2023-08-06T04:08:49;13.30;;;10.50;;
52015;SDS011;38032;53.326;6.472;2023-08-06T04:11:14;14.32;;;10.82;;
52015;SDS011;38032;53.326;6.472;2023-08-06T04:13:42;14.68;;;11.25;;
52015;SDS011;38032;53.326;6.472;2023-08-06T04:16:09;15.60;;;10.68;;
52015;SDS011;38032;53.326;6.472;2023-08-06T04:18:35;13.25;;;10.98;;
52015;SDS011;38032;53.326;6.472;2023-08-06T04:21:01;14.43;;;11.40;;
52015;SDS011;38032;53.326;6.472;2023-08-06T04:23:27;15.40;;;11.30;;
52015;SDS011;38032;53.326;6.472;2023-08-06T04:25:57;16.70;;;10.48;;
52015;SDS011;38032;53.326;6.472;2023-08-06T04:28:23;15.10;;;11.68;;
52015;SDS011;38032;53.326;6.472;2023-08-06T04:30:49;15.93;;;11.13;;
52015;SDS011;38032;53.326;6.472;2023-08-06T04:33:15;14.75;;;11.05;;
52015;SDS011;38032;53.326;6.472;2023-08-06T04:35:41;14.18;;;11.32;;
52015;SDS011;38032;53.326;6.472;2023-08-06T04:38:06;15.38;;;10.45;;
52015;SDS011;38032;53.326;6.472;2023-08-06T04:40:33;16.17;;;11.68;;
52015;SDS011;38032;53.326;6.472;2023-08-06T04:43:00;13.77;;;10.88;;
52015;SDS011;38032;53.326;6.472;2023-08-06T04:45:26;16.05;;;10.95;;
52015;SDS011;38032;53.326;6.472;2023-08-06T04:47:51;13.65;;;11.55;;
52015;SDS011;38032;53.326;6.472;2023-08-06T04:50:18;16.33;;;11.18;;
52015;SDS011;38032;53.326;6.472;2023-08-06T04:52:45;15.55;;;11.50;;
52015;SDS011;38032;53.326;6.472;2023-08-06T04:55:11;13.10;;;10.77;;
52015;SDS011;38032;53.326;6.472;2023-08-06T04:57:36;13.45;;;11.27;;
52015;SDS011;38032;53.326;6.472;2023-08-06T05:00:03;16.17;;;11.15;;
52015;SDS011;38032;53.326;6.472;2023-08-06T05:02:30;14.82;;;10.95;;
52015;SDS011;38032;53.326;6.472;2023-08-06T05:04:57;15.10;;;10.60;;
52015;SDS011;38032;53.326;6.472;2023-08-06T05:07:23;15.18;;;9.95;;
52015;SDS011;38032;53.326;6.472;2023-08-06T05:09:49;18.15;;;10.35;;
52015;SDS011;38032;53.326;6.472;2023-08-06T05:12:15;14.45;;;10.50;;
52015;SDS011;38032;53.326;6.472;2023-08-06T05:14:41;14.48;;;9.73;;
52015;SDS011;38032;53.326;6.472;2023-08-06T05:17:07;12.68;;;9.55;;
52015;SDS011;38032;53.326;6.472;2023-08-06T05:19:33;13.52;;;10.13;;
52015;SDS011;38032;53.326;6.472;2023-08-06T05:21:59;13.93;;;10.18;;
52015;SDS011;38032;53.326;6.472;2023-08-06T05:24:26;14.38;;;9.27;;
52015;SDS011;38032;53.326;6.472;2023-08-06T05:26:52;15.00;;;10.00;;
52015;SDS011;38032;53.326;6.472;2023-08-06T05:29:17;12.98;;;9.52;;
52015;SDS011;38032;53.326;6.472;2023-08-06T05:31:43;12.90;;;9.98;;
52015;SDS011;38032;53.326;6.472;2023-08-06T05:34:09;12.73;;;9.27;;
52015;SDS011;38032;53.326;6.472;2023-08-06T05:36:35;12.75;;;9.60;;
52015;SDS011;38032;53.326;6.472;2023-08-06T05:39:01;11.82;;;9.52;;
52015;SDS011;38032;53.326;6.472;2023-08-06T05:41:27;13.73;;;9.82;;
52015;SDS011;38032;53.326;6.472;2023-08-06T05:43:53;13.18;;;9.40;;
52015;SDS011;38032;53.326;6.472;2023-08-06T05:46:19;13.40;;;10.10;;
52015;SDS011;38032;53.326;6.472;2023-08-06T05:48:45;12.85;;;10.02;;
52015;SDS011;38032;53.326;6.472;2023-08-06T05:51:10;12.25;;;9.50;;
52015;SDS011;38032;53.326;6.472;2023-08-06T05:53:38;13.73;;;8.85;;
52015;SDS011;38032;53.326;6.472;2023-08-06T05:56:04;13.20;;;9.50;;
52015;SDS011;38032;53.326;6.472;2023-08-06T05:58:30;11.10;;;9.18;;
52015;SDS011;38032;53.326;6.472;2023-08-06T06:00:56;12.18;;;8.65;;
52015;SDS011;38032;53.326;6.472;2023-08-06T06:03:22;12.20;;;9.13;;
52015;SDS011;38032;53.326;6.472;2023-08-06T06:05:48;13.27;;;9.18;;
52015;SDS011;38032;53.326;6.472;2023-08-06T06:08:14;12.95;;;9.27;;
52015;SDS011;38032;53.326;6.472;2023-08-06T06:10:40;11.80;;;9.38;;
52015;SDS011;38032;53.326;6.472;2023-08-06T06:13:06;13.02;;;9.25;;
52015;SDS011;38032;53.326;6.472;2023-08-06T06:15:32;15.43;;;9.60;;
52015;SDS011;38032;53.326;6.472;2023-08-06T06:17:58;11.73;;;9.05;;
52015;SDS011;38032;53.326;6.472;2023-08-06T06:20:24;12.40;;;9.65;;
52015;SDS011;38032;53.326;6.472;2023-08-06T06:22:50;13.32;;;8.55;;
52015;SDS011;38032;53.326;6.472;2023-08-06T06:25:16;10.50;;;8.80;;
52015;SDS011;38032;53.326;6.472;2023-08-06T06:27:42;10.82;;;8.27;;
52015;SDS011;38032;53.326;6.472;2023-08-06T06:30:08;10.25;;;8.90;;
52015;SDS011;38032;53.326;6.472;2023-08-06T06:32:34;13.43;;;10.02;;
52015;SDS011;38032;53.326;6.472;2023-08-06T06:35:00;11.90;;;9.52;;
52015;SDS011;38032;53.326;6.472;2023-08-06T06:37:26;13.90;;;9.57;;
52015;SDS011;38032;53.326;6.472;2023-08-06T06:39:52;10.70;;;8.27;;
52015;SDS011;38032;53.326;6.472;2023-08-06T06:42:17;13.38;;;9.23;;
52015;SDS011;38032;53.326;6.472;2023-08-06T06:44:43;11.55;;;8.63;;
52015;SDS011;38032;53.326;6.472;2023-08-06T06:47:09;12.45;;;9.20;;
52015;SDS011;38032;53.326;6.472;2023-08-06T06:49:35;15.13;;;9.27;;
52015;SDS011;38032;53.326;6.472;2023-08-06T06:52:01;14.05;;;9.18;;
52015;SDS011;38032;53.326;6.472;2023-08-06T06:54:27;11.13;;;8.82;;
52015;SDS011;38032;53.326;6.472;2023-08-06T06:56:53;10.32;;;8.60;;
52015;SDS011;38032;53.326;6.472;2023-08-06T06:59:19;10.60;;;8.55;;
52015;SDS011;38032;53.326;6.472;2023-08-06T07:01:45;11.25;;;8.82;;
52015;SDS011;38032;53.326;6.472;2023-08-06T07:04:11;9.88;;;7.72;;
52015;SDS011;38032;53.326;6.472;2023-08-06T07:06:37;10.63;;;8.30;;
52015;SDS011;38032;53.326;6.472;2023-08-06T07:09:03;8.95;;;7.40;;
52015;SDS011;38032;53.326;6.472;2023-08-06T07:11:29;8.88;;;7.40;;
52015;SDS011;38032;53.326;6.472;2023-08-06T07:13:56;9.95;;;8.35;;
52015;SDS011;38032;53.326;6.472;2023-08-06T07:16:24;8.98;;;7.78;;
52015;SDS011;38032;53.326;6.472;2023-08-06T07:18:51;10.30;;;7.90;;
52015;SDS011;38032;53.326;6.472;2023-08-06T07:21:18;8.80;;;7.22;;
52015;SDS011;38032;53.326;6.472;2023-08-06T07:23:45;8.90;;;7.53;;
52015;SDS011;38032;53.326;6.472;2023-08-06T07:26:11;12.48;;;7.75;;
52015;SDS011;38032;53.326;6.472;2023-08-06T07:28:37;9.35;;;6.93;;
52015;SDS011;38032;53.326;6.472;2023-08-06T07:31:03;9.48;;;7.55;;
52015;SDS011;38032;53.326;6.472;2023-08-06T07:33:29;10.95;;;6.93;;
52015;SDS011;38032;53.326;6.472;2023-08-06T07:35:55;9.77;;;7.38;;
52015;SDS011;38032;53.326;6.472;2023-08-06T07:38:21;10.48;;;6.90;;
52015;SDS011;38032;53.326;6.472;2023-08-06T07:40:47;10.30;;;7.10;;
52015;SDS011;38032;53.326;6.472;2023-08-06T07:43:13;8.55;;;7.03;;
52015;SDS011;38032;53.326;6.472;2023-08-06T07:45:39;8.18;;;6.22;;
52015;SDS011;38032;53.326;6.472;2023-08-06T07:48:05;9.77;;;7.00;;
52015;SDS011;38032;53.326;6.472;2023-08-06T07:50:31;7.07;;;6.15;;
52015;SDS011;38032;53.326;6.472;2023-08-06T07:52:57;10.43;;;6.63;;
52015;SDS011;38032;53.326;6.472;2023-08-06T07:55:23;9.00;;;6.35;;
52015;SDS011;38032;53.326;6.472;2023-08-06T07:57:50;8.60;;;6.50;;
52015;SDS011;38032;53.326;6.472;2023-08-06T08:00:16;7.13;;;5.55;;
52015;SDS011;38032;53.326;6.472;2023-08-06T08:02:42;7.10;;;5.72;;
52015;SDS011;38032;53.326;6.472;2023-08-06T08:05:08;7.20;;;5.55;;
52015;SDS011;38032;53.326;6.472;2023-08-06T08:07:34;7.70;;;5.75;;
52015;SDS011;38032;53.326;6.472;2023-08-06T08:10:00;7.13;;;5.90;;
52015;SDS011;38032;53.326;6.472;2023-08-06T08:12:26;8.00;;;6.15;;
52015;SDS011;38032;53.326;6.472;2023-08-06T08:14:51;4.93;;;4.25;;
52015;SDS011;38032;53.326;6.472;2023-08-06T08:17:17;7.03;;;5.82;;
52015;SDS011;38032;53.326;6.472;2023-08-06T08:19:43;6.70;;;5.30;;
52015;SDS011;38032;53.326;6.472;2023-08-06T08:22:09;6.95;;;4.90;;
52015;SDS011;38032;53.326;6.472;2023-08-06T08:24:35;7.15;;;5.40;;
52015;SDS011;38032;53.326;6.472;2023-08-06T08:27:01;6.22;;;4.55;;
52015;SDS011;38032;53.326;6.472;2023-08-06T08:29:27;6.25;;;4.82;;
52015;SDS011;38032;53.326;6.472;2023-08-06T08:31:53;5.65;;;4.40;;
52015;SDS011;38032;53.326;6.472;2023-08-06T08:34:19;7.60;;;5.43;;
52015;SDS011;38032;53.326;6.472;2023-08-06T08:36:45;6.18;;;4.90;;
52015;SDS011;38032;53.326;6.472;2023-08-06T08:39:12;6.82;;;4.70;;
52015;SDS011;38032;53.326;6.472;2023-08-06T08:41:39;6.93;;;4.68;;
52015;SDS011;38032;53.326;6.472;2023-08-06T08:44:07;5.65;;;4.43;;
52015;SDS011;38032;53.326;6.472;2023-08-06T08:46:36;5.28;;;3.33;;
52015;SDS011;38032;53.326;6.472;2023-08-06T08:49:03;4.80;;;3.92;;
52015;SDS011;38032;53.326;6.472;2023-08-06T08:51:30;4.68;;;3.88;;
52015;SDS011;38032;53.326;6.472;2023-08-06T08:53:56;4.38;;;3.25;;
52015;SDS011;38032;53.326;6.472;2023-08-06T08:56:23;5.30;;;3.63;;
52015;SDS011;38032;53.326;6.472;2023-08-06T08:58:50;5.97;;;3.05;;
52015;SDS011;38032;53.326;6.472;2023-08-06T09:01:18;4.22;;;3.30;;
52015;SDS011;38032;53.326;6.472;2023-08-06T09:03:45;4.38;;;2.90;;
52015;SDS011;38032;53.326;6.472;2023-08-06T09:06:12;3.75;;;2.80;;
52015;SDS011;38032;53.326;6.472;2023-08-06T09:08:43;3.80;;;2.70;;
52015;SDS011;38032;53.326;6.472;2023-08-06T09:11:16;8.43;;;3.00;;
52015;SDS011;38032;53.326;6.472;2023-08-06T09:13:45;3.40;;;2.67;;
52015;SDS011;38032;53.326;6.472;2023-08-06T09:16:12;4.65;;;3.30;;
52015;SDS011;38032;53.326;6.472;2023-08-06T09:18:38;5.40;;;3.03;;
52015;SDS011;38032;53.326;6.472;2023-08-06T09:21:04;4.38;;;3.10;;
52015;SDS011;38032;53.326;6.472;2023-08-06T09:23:31;6.65;;;3.33;;
52015;SDS011;38032;53.326;6.472;2023-08-06T09:25:58;4.03;;;3.10;;
52015;SDS011;38032;53.326;6.472;2023-08-06T09:28:31;5.32;;;3.63;;
52015;SDS011;38032;53.326;6.472;2023-08-06T09:31:04;5.55;;;3.55;;
52015;SDS011;38032;53.326;6.472;2023-08-06T09:33:30;6.88;;;3.60;;
52015;SDS011;38032;53.326;6.472;2023-08-06T09:35:56;6.10;;;3.10;;
52015;SDS011;38032;53.326;6.472;2023-08-06T09:38:22;6.95;;;3.78;;
52015;SDS011;38032;53.326;6.472;2023-08-06T09:40:47;3.92;;;2.90;;
52015;SDS011;38032;53.326;6.472;2023-08-06T09:43:13;4.15;;;3.05;;
52015;SDS011;38032;53.326;6.472;2023-08-06T09:45:39;4.03;;;2.90;;
52015;SDS011;38032;53.326;6.472;2023-08-06T09:48:06;4.43;;;2.53;;
52015;SDS011;38032;53.326;6.472;2023-08-06T09:50:34;3.90;;;2.47;;
52015;SDS011;38032;53.326;6.472;2023-08-06T09:53:03;3.20;;;2.53;;
52015;SDS011;38032;53.326;6.472;2023-08-06T09:55:30;3.00;;;2.00;;
52015;SDS011;38032;53.326;6.472;2023-08-06T09:57:57;3.83;;;2.35;;
52015;SDS011;38032;53.326;6.472;2023-08-06T10:00:24;3.97;;;2.30;;
52015;SDS011;38032;53.326;6.472;2023-08-06T10:02:51;3.03;;;2.20;;
52015;SDS011;38032;53.326;6.472;2023-08-06T10:05:22;3.20;;;2.40;;
52015;SDS011;38032;53.326;6.472;2023-08-06T10:07:49;4.10;;;2.20;;
52015;SDS011;38032;53.326;6.472;2023-08-06T10:10:17;4.82;;;2.33;;
52015;SDS011;38032;53.326;6.472;2023-08-06T10:12:50;3.67;;;2.45;;
52015;SDS011;38032;53.326;6.472;2023-08-06T10:15:21;3.67;;;2.33;;
52015;SDS011;38032;53.326;6.472;2023-08-06T10:17:51;3.50;;;2.33;;
52015;SDS011;38032;53.326;6.472;2023-08-06T10:20:19;4.40;;;2.22;;
52015;SDS011;38032;53.326;6.472;2023-08-06T10:23:03;6.13;;;2.72;;
52015;SDS011;38032;53.326;6.472;2023-08-06T10:25:31;3.55;;;2.30;;
52015;SDS011;38032;53.326;6.472;2023-08-06T10:27:59;3.83;;;2.40;;
52015;SDS011;38032;53.326;6.472;2023-08-06T10:30:26;3.88;;;2.20;;
52015;SDS011;38032;53.326;6.472;2023-08-06T10:32:56;3.53;;;2.50;;
52015;SDS011;38032;53.326;6.472;2023-08-06T10:38:04;2.65;;;2.00;;
52015;SDS011;38032;53.326;6.472;2023-08-06T10:40:33;3.55;;;2.40;;
52015;SDS011;38032;53.326;6.472;2023-08-06T10:43:00;3.92;;;2.20;;
52015;SDS011;38032;53.326;6.472;2023-08-06T10:45:26;3.58;;;2.50;;
52015;SDS011;38032;53.326;6.472;2023-08-06T10:47:55;3.17;;;2.13;;
52015;SDS011;38032;53.326;6.472;2023-08-06T10:50:22;3.65;;;2.25;;
52015;SDS011;38032;53.326;6.472;2023-08-06T10:52:48;3.33;;;2.30;;
52015;SDS011;38032;53.326;6.472;2023-08-06T10:55:22;3.35;;;2.40;;
52015;SDS011;38032;53.326;6.472;2023-08-06T10:57:49;3.15;;;2.10;;
52015;SDS011;38032;53.326;6.472;2023-08-06T11:00:15;4.97;;;2.20;;
52015;SDS011;38032;53.326;6.472;2023-08-06T11:02:41;3.20;;;2.30;;
52015;SDS011;38032;53.326;6.472;2023-08-06T11:05:09;3.30;;;2.25;;
52015;SDS011;38032;53.326;6.472;2023-08-06T11:07:36;3.58;;;2.17;;
52015;SDS011;38032;53.326;6.472;2023-08-06T11:10:04;4.13;;;2.33;;
52015;SDS011;38032;53.326;6.472;2023-08-06T11:12:31;3.45;;;2.25;;
52015;SDS011;38032;53.326;6.472;2023-08-06T11:14:58;3.03;;;2.20;;
52015;SDS011;38032;53.326;6.472;2023-08-06T11:17:24;3.92;;;2.60;;
52015;SDS011;38032;53.326;6.472;2023-08-06T11:19:52;5.32;;;2.80;;
52015;SDS011;38032;53.326;6.472;2023-08-06T11:22:20;3.67;;;2.35;;
52015;SDS011;38032;53.326;6.472;2023-08-06T11:24:47;3.50;;;2.65;;
52015;SDS011;38032;53.326;6.472;2023-08-06T11:27:14;4.75;;;2.50;;
52015;SDS011;38032;53.326;6.472;2023-08-06T11:29:41;3.33;;;2.33;;
52015;SDS011;38032;53.326;6.472;2023-08-06T11:32:07;4.00;;;2.30;;
52015;SDS011;38032;53.326;6.472;2023-08-06T11:34:35;6.97;;;2.70;;
52015;SDS011;38032;53.326;6.472;2023-08-06T11:37:03;5.72;;;2.70;;
52015;SDS011;38032;53.326;6.472;2023-08-06T11:39:31;4.43;;;2.40;;
52015;SDS011;38032;53.326;6.472;2023-08-06T11:41:59;4.03;;;2.50;;
52015;SDS011;38032;53.326;6.472;2023-08-06T11:44:29;3.80;;;2.50;;
52015;SDS011;38032;53.326;6.472;2023-08-06T11:46:58;3.85;;;2.60;;
52015;SDS011;38032;53.326;6.472;2023-08-06T11:49:44;4.15;;;2.45;;
52015;SDS011;38032;53.326;6.472;2023-08-06T11:52:20;3.70;;;2.42;;
52015;SDS011;38032;53.326;6.472;2023-08-06T11:54:59;4.72;;;2.88;;
52015;SDS011;38032;53.326;6.472;2023-08-06T11:57:29;4.65;;;2.33;;
52015;SDS011;38032;53.326;6.472;2023-08-06T12:00:02;3.70;;;2.30;;
52015;SDS011;38032;53.326;6.472;2023-08-06T12:02:31;3.72;;;2.30;;
52015;SDS011;38032;53.326;6.472;2023-08-06T12:05:00;3.35;;;2.30;;
52015;SDS011;38032;53.326;6.472;2023-08-06T12:07:29;4.13;;;2.47;;
52015;SDS011;38032;53.326;6.472;2023-08-06T12:09:56;5.97;;;2.45;;
52015;SDS011;38032;53.326;6.472;2023-08-06T12:12:22;3.80;;;2.40;;
52015;SDS011;38032;53.326;6.472;2023-08-06T12:14:49;3.00;;;2.00;;
52015;SDS011;38032;53.326;6.472;2023-08-06T12:17:14;3.53;;;2.17;;
52015;SDS011;38032;53.326;6.472;2023-08-06T12:19:41;3.78;;;2.40;;
52015;SDS011;38032;53.326;6.472;2023-08-06T12:22:06;4.03;;;2.30;;
52015;SDS011;38032;53.326;6.472;2023-08-06T12:24:33;3.60;;;2.45;;
52015;SDS011;38032;53.326;6.472;2023-08-06T12:26:59;2.88;;;2.10;;
52015;SDS011;38032;53.326;6.472;2023-08-06T12:29:27;4.10;;;2.30;;
52015;SDS011;38032;53.326;6.472;2023-08-06T12:31:53;2.85;;;2.17;;
52015;SDS011;38032;53.326;6.472;2023-08-06T12:34:19;4.88;;;2.30;;
52015;SDS011;38032;53.326;6.472;2023-08-06T12:36:45;3.13;;;2.20;;
52015;SDS011;38032;53.326;6.472;2023-08-06T12:39:11;4.05;;;2.30;;
52015;SDS011;38032;53.326;6.472;2023-08-06T12:41:37;3.67;;;2.22;;
52015;SDS011;38032;53.326;6.472;2023-08-06T12:44:03;4.28;;;2.13;;
52015;SDS011;38032;53.326;6.472;2023-08-06T12:46:29;2.53;;;2.00;;
52015;SDS011;38032;53.326;6.472;2023-08-06T12:48:56;3.63;;;2.40;;
52015;SDS011;38032;53.326;6.472;2023-08-06T12:51:23;3.08;;;2.10;;
52015;SDS011;38032;53.326;6.472;2023-08-06T12:53:50;2.85;;;2.10;;
52015;SDS011;38032;53.326;6.472;2023-08-06T12:56:16;3.83;;;2.30;;
52015;SDS011;38032;53.326;6.472;2023-08-06T12:58:42;3.75;;;2.22;;
52015;SDS011;38032;53.326;6.472;2023-08-06T13:01:07;3.33;;;2.40;;
52015;SDS011;38032;53.326;6.472;2023-08-06T13:03:33;3.90;;;2.28;;
52015;SDS011;38032;53.326;6.472;2023-08-06T13:05:59;4.55;;;2.00;;
52015;SDS011;38032;53.326;6.472;2023-08-06T13:08:25;3.65;;;2.15;;
52015;SDS011;38032;53.326;6.472;2023-08-06T13:10:51;3.38;;;2.20;;
52015;SDS011;38032;53.326;6.472;2023-08-06T13:13:17;4.82;;;2.30;;
52015;SDS011;38032;53.326;6.472;2023-08-06T13:15:43;6.80;;;2.10;;
52015;SDS011;38032;53.326;6.472;2023-08-06T13:18:09;3.63;;;2.20;;
52015;SDS011;38032;53.326;6.472;2023-08-06T13:20:37;3.10;;;2.28;;
52015;SDS011;38032;53.326;6.472;2023-08-06T13:23:05;3.40;;;2.20;;
52015;SDS011;38032;53.326;6.472;2023-08-06T13:25:31;3.30;;;2.25;;
52015;SDS011;38032;53.326;6.472;2023-08-06T13:28:02;3.20;;;2.10;;
52015;SDS011;38032;53.326;6.472;2023-08-06T13:30:28;2.50;;;1.88;;
52015;SDS011;38032;53.326;6.472;2023-08-06T13:32:54;4.15;;;2.20;;
52015;SDS011;38032;53.326;6.472;2023-08-06T13:35:22;2.90;;;2.30;;
52015;SDS011;38032;53.326;6.472;2023-08-06T13:37:48;3.03;;;2.05;;
52015;SDS011;38032;53.326;6.472;2023-08-06T13:40:14;3.30;;;2.10;;
52015;SDS011;38032;53.326;6.472;2023-08-06T13:42:41;2.97;;;1.90;;
52015;SDS011;38032;53.326;6.472;2023-08-06T13:45:06;2.72;;;2.00;;
52015;SDS011;38032;53.326;6.472;2023-08-06T13:47:33;3.50;;;1.90;;
52015;SDS011;38032;53.326;6.472;2023-08-06T13:49:59;2.83;;;2.00;;
52015;SDS011;38032;53.326;6.472;2023-08-06T13:52:25;3.65;;;2.30;;
52015;SDS011;38032;53.326;6.472;2023-08-06T13:54:52;3.25;;;2.30;;
52015;SDS011;38032;53.326;6.472;2023-08-06T13:57:18;3.08;;;2.15;;
52015;SDS011;38032;53.326;6.472;2023-08-06T13:59:44;2.88;;;2.17;;
52015;SDS011;38032;53.326;6.472;2023-08-06T14:02:10;3.40;;;2.15;;
52015;SDS011;38032;53.326;6.472;2023-08-06T14:04:36;3.30;;;2.20;;
52015;SDS011;38032;53.326;6.472;2023-08-06T14:07:04;3.08;;;2.10;;
52015;SDS011;38032;53.326;6.472;2023-08-06T14:09:30;3.10;;;2.08;;
52015;SDS011;38032;53.326;6.472;2023-08-06T14:11:56;2.95;;;2.20;;
52015;SDS011;38032;53.326;6.472;2023-08-06T14:14:22;2.88;;;2.00;;
52015;SDS011;38032;53.326;6.472;2023-08-06T14:16:51;3.17;;;2.10;;
52015;SDS011;38032;53.326;6.472;2023-08-06T14:19:18;3.83;;;2.47;;
52015;SDS011;38032;53.326;6.472;2023-08-06T14:21:44;3.45;;;2.10;;
52015;SDS011;38032;53.326;6.472;2023-08-06T14:24:10;4.25;;;2.20;;
52015;SDS011;38032;53.326;6.472;2023-08-06T14:26:36;3.38;;;2.20;;
52015;SDS011;38032;53.326;6.472;2023-08-06T14:29:02;3.90;;;2.17;;
52015;SDS011;38032;53.326;6.472;2023-08-06T14:31:28;2.88;;;1.88;;
52015;SDS011;38032;53.326;6.472;2023-08-06T14:33:55;3.08;;;2.20;;
52015;SDS011;38032;53.326;6.472;2023-08-06T14:36:21;3.17;;;2.10;;
52015;SDS011;38032;53.326;6.472;2023-08-06T14:38:47;2.70;;;2.00;;
52015;SDS011;38032;53.326;6.472;2023-08-06T14:41:13;3.30;;;2.03;;
52015;SDS011;38032;53.326;6.472;2023-08-06T14:43:38;3.13;;;2.08;;
52015;SDS011;38032;53.326;6.472;2023-08-06T14:46:05;2.80;;;1.90;;